logo tempoitalia

Diretta Meteo Figari, Franciamartedì 17 maggio ore 05:00

Mappa
Sereno 10 °C Sereno 24 Ore: T.min 9 T.max 27
Ponente Nord Km/h 3.7 Punto di rugiada: 10 °C Umidità: 100% Visibilità: 10 Km
Il sole sorge alle: 06:00 Il sole tramonta alle: 20:39
17 Maggio 2022 05:00 tempo osservato: Sereno Sereno 10 100 1020 vento: Nord N 3.7
17 Maggio 2022 04:30 tempo osservato: Sereno Sereno 11 93 1020 vento: Nord N 5.5
17 Maggio 2022 04:00 tempo osservato: Sereno Sereno 11 93 1020 vento: Nord N 3.7
17 Maggio 2022 03:30 tempo osservato: Sereno Sereno 12 93 1020 vento: Nord N 5.5
17 Maggio 2022 03:00 tempo osservato: Sereno Sereno 12 93 1020 vento: Nord N 3.7
17 Maggio 2022 02:30 tempo osservato: Sereno Sereno 12 93 1020 vento: Nord N 5.5
17 Maggio 2022 02:00 tempo osservato: Sereno Sereno 13 93 1020 vento: Nord N 3.7
17 Maggio 2022 01:30 tempo osservato: Sereno Sereno 14 87 1020 vento: Nord N 3.7
17 Maggio 2022 01:00 tempo osservato: Sereno Sereno 15 87 1021 vento: Nord N 0
17 Maggio 2022 00:30 tempo osservato: Sereno Sereno 15 93 1021 vento: Nord NE 9.3
17 Maggio 2022 00:00 tempo osservato: Sereno Sereno 16 87 1020 vento: Nord NE 7.4
16 Maggio 2022 23:30 tempo osservato: Sereno Sereno 17 88 1020 vento: Nord NE 7.4
16 Maggio 2022 23:00 tempo osservato: Sereno Sereno 17 88 1020 vento: Nord NE 9.3
16 Maggio 2022 22:30 tempo osservato: Sereno Sereno 17 88 1020 vento: Nord E/NE 11.1
16 Maggio 2022 22:00 tempo osservato: Sereno Sereno 18 82 1020 vento: Nord NE 7.4
16 Maggio 2022 21:30 tempo osservato: Sereno Sereno 19 77 1019 vento: Nord NE 9.3
16 Maggio 2022 21:00 tempo osservato: Sereno Sereno 20 77 1019 vento: Nord NE 11.1
16 Maggio 2022 20:30 tempo osservato: Sereno Sereno 22 68 1019 vento: Nord NE 11.1
16 Maggio 2022 20:00 tempo osservato: Sereno Sereno 26 41 1018 vento: Nord SO 22.2
16 Maggio 2022 19:30 tempo osservato: Sereno Sereno 26 44 1019 vento: Nord SO 25.9
16 Maggio 2022 19:00 tempo osservato: Sereno Sereno 27 39 1018 vento: Nord O/SO 22.2
16 Maggio 2022 18:30 tempo osservato: Sereno Sereno 27 42 1019 vento: Nord O/SO 24
16 Maggio 2022 18:00 tempo osservato: Sereno Sereno 27 42 1019 vento: Nord SO 25.9
16 Maggio 2022 17:30 tempo osservato: Sereno Sereno 26 50 1019 vento: Nord S/SO 22.2
16 Maggio 2022 17:00 tempo osservato: Sereno Sereno 26 47 1019 vento: Nord S/SO 18.5
16 Maggio 2022 16:30 tempo osservato: Sereno Sereno 26 47 1020 vento: Nord S/SO 16.7
16 Maggio 2022 16:00 tempo osservato: Sereno Sereno 26 50 1020 vento: Nord S/SO 16.7
16 Maggio 2022 15:30 tempo osservato: Sereno Sereno 26 47 1020 vento: Nord SO 16.7
16 Maggio 2022 15:00 tempo osservato: Sereno Sereno 26 47 1020 vento: Nord SO 16.7
16 Maggio 2022 14:30 tempo osservato: Sereno Sereno 26 50 1020 vento: Nord SO 13
16 Maggio 2022 14:00 tempo osservato: Sereno Sereno 26 47 1020 vento: Nord SO 18.5
16 Maggio 2022 13:30 tempo osservato: Sereno Sereno 26 54 1020 vento: Nord SO 14.8
16 Maggio 2022 13:00 tempo osservato: Sereno Sereno 26 57 1021 vento: Nord S/SO 13
16 Maggio 2022 12:30 tempo osservato: Sereno Sereno 25 57 1021 vento: Nord S/SO 14.8
16 Maggio 2022 12:00 tempo osservato: Sereno Sereno 24 64 1021 vento: Nord SO 18.5
16 Maggio 2022 11:30 tempo osservato: Sereno Sereno 24 60 1021 vento: Nord SO 18.5
16 Maggio 2022 11:00 tempo osservato: Sereno Sereno 25 47 1021 vento: Nord E 7.4
16 Maggio 2022 10:30 tempo osservato: Sereno Sereno 24 53 1020 vento: Nord E 7.4
16 Maggio 2022 10:00 tempo osservato: Sereno Sereno 24 53 1020 vento: Nord N 7.4
16 Maggio 2022 09:30 tempo osservato: Sereno Sereno 23 60 1021 vento: Nord N 3.7
16 Maggio 2022 09:00 tempo osservato: Sereno Sereno 22 68 1020 vento: Nord N 3.7
16 Maggio 2022 08:30 tempo osservato: Sereno Sereno 20 77 1020 vento: Nord N 1.8
16 Maggio 2022 08:00 tempo osservato: Sereno Sereno 17 82 1020 vento: Nord N 3.7
16 Maggio 2022 07:30 tempo osservato: Sereno Sereno 13 87 1020 vento: Nord N 0
16 Maggio 2022 07:00 tempo osservato: Sereno Sereno 11 93 1020 vento: Nord N 3.7
16 Maggio 2022 06:30 tempo osservato: Sereno Sereno 9 93 1020 vento: Nord N 3.7
16 Maggio 2022 06:00 tempo osservato: Sereno Sereno 9 93 1019 vento: Nord NE 7.4